createdAt,value
2019-05-06T00:00:35.971Z,0.00
2019-05-06T00:02:21.702Z,0.00
2019-05-06T00:03:29.335Z,0.00
2019-05-06T00:05:17.155Z,0.00
2019-05-06T00:06:16.114Z,0.00
2019-05-06T00:08:09.516Z,0.00
2019-05-06T00:09:09.461Z,0.00
2019-05-06T00:11:04.764Z,0.00
2019-05-06T00:12:04.018Z,0.00
2019-05-06T00:13:04.602Z,0.00
2019-05-06T00:14:03.918Z,0.00
2019-05-06T00:15:03.965Z,0.00
2019-05-06T00:16:03.940Z,0.00
2019-05-06T00:17:03.904Z,0.00
2019-05-06T00:18:04.454Z,0.00
2019-05-06T00:19:04.900Z,0.00
2019-05-06T00:20:04.263Z,0.00
2019-05-06T00:21:04.649Z,0.00
2019-05-06T00:22:04.712Z,0.00
2019-05-06T00:23:04.199Z,0.00
2019-05-06T00:24:03.921Z,0.00
2019-05-06T00:25:05.238Z,0.00
2019-05-06T00:26:04.003Z,0.00
2019-05-06T00:27:11.526Z,0.00
2019-05-06T00:28:56.223Z,0.00
2019-05-06T00:29:56.170Z,0.00
2019-05-06T00:31:49.690Z,0.00
2019-05-06T00:32:49.639Z,0.00
2019-05-06T00:34:44.517Z,0.00
2019-05-06T00:35:45.008Z,0.00
2019-05-06T00:36:44.494Z,0.00
2019-05-06T00:37:53.606Z,0.00
2019-05-06T00:39:45.763Z,0.00
2019-05-06T00:40:45.599Z,0.00
2019-05-06T00:42:39.014Z,0.00
2019-05-06T00:43:39.006Z,0.00
2019-05-06T00:45:34.142Z,0.00
2019-05-06T00:46:34.264Z,0.00
2019-05-06T00:48:18.193Z,0.00
2019-05-06T00:49:25.842Z,0.00
2019-05-06T00:51:19.337Z,0.00
2019-05-06T00:52:23.931Z,0.00
2019-05-06T00:54:14.334Z,0.00
2019-05-06T00:55:13.745Z,0.00
2019-05-06T00:57:06.081Z,0.00
2019-05-06T00:57:58.319Z,0.00
2019-05-06T00:59:53.957Z,0.00
2019-05-06T01:00:53.768Z,0.00
2019-05-06T01:02:47.320Z,0.00
2019-05-06T01:03:47.260Z,0.00
2019-05-06T01:05:44.279Z,0.00
2019-05-06T01:06:44.089Z,0.00
2019-05-06T01:08:37.725Z,0.00
2019-05-06T01:09:36.146Z,0.00
2019-05-06T01:10:44.950Z,0.00
2019-05-06T01:12:29.146Z,0.00
2019-05-06T01:13:29.076Z,0.00
2019-05-06T01:15:31.537Z,0.00
2019-05-06T01:16:31.787Z,0.00
2019-05-06T01:18:21.452Z,0.00
2019-05-06T01:19:16.383Z,0.00
2019-05-06T01:21:19.325Z,0.00
2019-05-06T01:22:09.722Z,0.00
2019-05-06T01:24:04.237Z,0.00
2019-05-06T01:25:03.967Z,0.00
2019-05-06T01:27:00.060Z,0.00
2019-05-06T01:28:04.375Z,0.00
2019-05-06T01:29:49.913Z,0.00
2019-05-06T01:30:49.864Z,0.00
2019-05-06T01:32:43.666Z,0.00
2019-05-06T01:33:45.171Z,0.00
2019-05-06T01:35:36.630Z,0.00
2019-05-06T01:36:36.588Z,0.00
2019-05-06T01:37:36.574Z,0.00
2019-05-06T01:38:36.602Z,0.00
2019-05-06T01:39:36.558Z,0.00
2019-05-06T01:40:36.543Z,0.00
2019-05-06T01:41:37.539Z,0.00
2019-05-06T01:42:36.523Z,0.00
2019-05-06T01:43:38.508Z,0.00
2019-05-06T01:44:36.504Z,0.00
2019-05-06T01:45:36.490Z,0.00
2019-05-06T01:46:36.480Z,0.00
2019-05-06T01:47:36.479Z,0.00
2019-05-06T01:48:38.591Z,0.00
2019-05-06T01:49:36.451Z,0.00
2019-05-06T01:51:29.827Z,0.00
2019-05-06T01:52:29.775Z,0.00
2019-05-06T01:54:24.909Z,0.00
2019-05-06T01:55:23.963Z,0.00
2019-05-06T01:57:18.792Z,0.00
2019-05-06T01:58:18.744Z,0.00
2019-05-06T02:00:13.951Z,0.00
2019-05-06T02:01:14.573Z,0.00
2019-05-06T02:02:14.135Z,0.00
2019-05-06T02:03:12.150Z,0.00
2019-05-06T02:04:13.844Z,0.00
2019-05-06T02:05:13.802Z,0.00
2019-05-06T02:06:14.147Z,0.00
2019-05-06T02:07:14.299Z,0.00
2019-05-06T02:08:13.516Z,0.00
2019-05-06T02:09:13.729Z,0.00
2019-05-06T02:10:14.036Z,0.00
2019-05-06T02:11:12.052Z,0.00
2019-05-06T02:12:13.794Z,0.00
2019-05-06T02:13:14.131Z,0.00
2019-05-06T02:14:13.892Z,0.00
2019-05-06T02:15:12.008Z,0.00
2019-05-06T02:16:14.322Z,0.00
2019-05-06T02:17:14.229Z,0.00
2019-05-06T02:18:13.535Z,0.00
2019-05-06T02:19:11.966Z,0.00
2019-05-06T02:20:13.773Z,0.00
2019-05-06T02:21:13.764Z,0.00
2019-05-06T02:22:13.657Z,0.00
2019-05-06T02:24:05.441Z,0.00
2019-05-06T02:25:05.391Z,0.00
2019-05-06T02:26:58.869Z,0.00
2019-05-06T02:27:58.767Z,0.00
2019-05-06T02:28:58.760Z,0.00
2019-05-06T02:29:58.756Z,0.00
2019-05-06T02:30:58.775Z,0.00
2019-05-06T02:32:15.755Z,0.00
2019-05-06T02:32:58.723Z,0.00
2019-05-06T02:33:58.710Z,0.00
2019-05-06T02:34:58.699Z,0.00
2019-05-06T02:35:58.686Z,0.00
2019-05-06T02:36:58.678Z,0.00
2019-05-06T02:37:58.672Z,0.00
2019-05-06T02:38:59.605Z,0.00
2019-05-06T02:39:58.643Z,0.00
2019-05-06T02:40:58.714Z,0.00
2019-05-06T02:41:58.642Z,0.00
2019-05-06T02:42:58.608Z,0.00
2019-05-06T02:43:58.597Z,0.00
2019-05-06T02:44:58.594Z,0.00
2019-05-06T02:45:58.579Z,0.00
2019-05-06T02:46:58.565Z,0.00
2019-05-06T02:47:58.556Z,0.00
2019-05-06T02:48:58.543Z,0.00
2019-05-06T02:49:58.532Z,0.00
2019-05-06T02:50:58.529Z,0.00
2019-05-06T02:51:58.517Z,0.00
2019-05-06T02:52:58.504Z,0.00
2019-05-06T02:53:58.498Z,0.00
2019-05-06T02:54:58.485Z,0.00
2019-05-06T02:55:58.467Z,0.00
2019-05-06T02:56:58.469Z,0.00
2019-05-06T02:57:58.450Z,0.00
2019-05-06T02:58:58.440Z,0.00
2019-05-06T02:59:58.428Z,0.00
2019-05-06T03:00:58.411Z,0.00
2019-05-06T03:01:58.408Z,0.00
2019-05-06T03:02:58.397Z,0.00
2019-05-06T03:03:58.381Z,0.00
2019-05-06T03:04:58.386Z,0.00
2019-05-06T03:05:58.363Z,0.00
2019-05-06T03:06:58.352Z,0.00
2019-05-06T03:07:58.340Z,0.00
2019-05-06T03:08:58.332Z,0.00
2019-05-06T03:09:58.327Z,0.00
2019-05-06T03:10:58.311Z,0.00
2019-05-06T03:11:58.301Z,0.00
2019-05-06T03:12:58.284Z,0.00
2019-05-06T03:13:58.269Z,0.00
2019-05-06T03:14:58.277Z,0.00
2019-05-06T03:15:58.248Z,0.00
2019-05-06T03:16:58.244Z,0.00
2019-05-06T03:17:58.232Z,0.00
2019-05-06T03:18:58.245Z,0.00
2019-05-06T03:19:58.208Z,0.00
2019-05-06T03:20:58.213Z,0.00
2019-05-06T03:21:58.190Z,0.00
2019-05-06T03:22:58.182Z,0.00
2019-05-06T03:23:58.181Z,0.00
2019-05-06T03:24:58.176Z,0.00
2019-05-06T03:25:58.149Z,0.00
2019-05-06T03:26:58.137Z,0.00
2019-05-06T03:27:58.124Z,0.00
2019-05-06T03:28:58.117Z,0.00
2019-05-06T03:30:56.547Z,0.00
2019-05-06T03:31:56.275Z,0.00
2019-05-06T03:33:23.295Z,0.00
2019-05-06T03:34:16.205Z,0.00
2019-05-06T03:35:07.888Z,0.00
2019-05-06T03:36:06.237Z,0.00
2019-05-06T03:36:56.000Z,0.00
2019-05-06T03:37:53.285Z,0.00
2019-05-06T03:38:53.640Z,0.00
2019-05-06T03:39:52.897Z,0.00
2019-05-06T03:40:53.718Z,0.00
2019-05-06T03:41:53.711Z,0.00
2019-05-06T03:42:53.897Z,5.63
2019-05-06T03:43:54.411Z,5.63
2019-05-06T03:44:53.283Z,5.63
2019-05-06T03:45:53.652Z,5.63
2019-05-06T03:46:53.890Z,5.63
2019-05-06T03:47:54.062Z,5.63
2019-05-06T03:50:06.882Z,11.25
2019-05-06T03:51:04.272Z,11.25
2019-05-06T03:52:03.804Z,11.25
2019-05-06T03:53:03.857Z,16.88
2019-05-06T03:54:03.781Z,16.88
2019-05-06T03:55:04.255Z,16.88
2019-05-06T03:56:03.756Z,16.88
2019-05-06T03:57:10.359Z,22.50
2019-05-06T03:58:04.024Z,22.50
2019-05-06T03:59:03.726Z,22.50
2019-05-06T04:00:04.950Z,28.13
2019-05-06T04:01:03.949Z,28.13
2019-05-06T04:02:05.308Z,28.13
2019-05-06T04:03:03.690Z,33.75
2019-05-06T04:04:04.000Z,33.75
2019-05-06T04:05:04.300Z,39.38
2019-05-06T04:06:13.842Z,39.38
2019-05-06T04:07:03.653Z,45.00
2019-05-06T04:08:07.370Z,45.00
2019-05-06T04:09:05.621Z,50.63
2019-05-06T04:10:04.012Z,50.63
2019-05-06T04:11:05.367Z,50.63
2019-05-06T04:12:03.788Z,56.25
2019-05-06T04:13:04.316Z,56.25
2019-05-06T04:14:06.364Z,61.88
2019-05-06T04:15:04.173Z,61.88
2019-05-06T04:16:05.351Z,67.50
2019-05-06T04:17:05.364Z,67.50
2019-05-06T04:18:03.992Z,73.13
2019-05-06T04:19:05.369Z,73.13
2019-05-06T04:20:04.163Z,78.75
2019-05-06T04:21:03.881Z,78.75
2019-05-06T04:22:05.367Z,84.38
2019-05-06T04:23:06.196Z,84.38
2019-05-06T04:24:05.356Z,84.38
2019-05-06T04:25:05.357Z,90.00
2019-05-06T04:26:05.359Z,90.00
2019-05-06T04:27:03.439Z,95.63
2019-05-06T04:28:05.375Z,101.25
2019-05-06T04:29:05.364Z,101.25
2019-05-06T04:30:04.643Z,106.88
2019-05-06T04:31:05.364Z,118.13
2019-05-06T04:32:04.875Z,123.75
2019-05-06T04:33:04.857Z,129.38
2019-05-06T04:34:12.675Z,140.63
2019-05-06T04:35:04.917Z,146.25
2019-05-06T04:36:13.169Z,157.50
2019-05-06T04:37:57.859Z,168.75
2019-05-06T04:38:56.800Z,168.75
2019-05-06T04:40:53.529Z,185.63
2019-05-06T04:41:53.621Z,191.25
2019-05-06T04:43:44.267Z,196.88
2019-05-06T04:44:46.653Z,202.50
2019-05-06T04:45:44.208Z,208.13
2019-05-06T04:47:45.384Z,225.00
2019-05-06T04:48:37.662Z,219.38
2019-05-06T04:50:38.838Z,185.63
2019-05-06T04:51:38.716Z,168.75
2019-05-06T04:53:27.117Z,140.63
2019-05-06T04:54:26.548Z,135.00
2019-05-06T04:56:17.792Z,112.50
2019-05-06T04:57:17.772Z,106.88
2019-05-06T04:59:13.654Z,106.88
2019-05-06T05:00:13.043Z,112.50
2019-05-06T05:02:04.606Z,129.38
2019-05-06T05:03:04.591Z,135.00
2019-05-06T05:04:57.988Z,151.88
2019-05-06T05:05:59.965Z,151.88
2019-05-06T05:07:53.028Z,151.88
2019-05-06T05:08:53.166Z,151.88
2019-05-06T05:10:46.248Z,151.88
2019-05-06T05:11:46.202Z,151.88
2019-05-06T05:13:39.642Z,151.88
2019-05-06T05:14:39.621Z,151.88
2019-05-06T05:15:41.681Z,151.88
2019-05-06T05:16:39.634Z,151.88
2019-05-06T05:17:39.581Z,151.88
2019-05-06T05:18:39.583Z,151.88
2019-05-06T05:19:39.562Z,151.88
2019-05-06T05:20:46.322Z,151.88
2019-05-06T05:21:39.538Z,151.88
2019-05-06T05:22:39.530Z,157.50
2019-05-06T05:23:39.521Z,163.13
2019-05-06T05:24:39.513Z,168.75
2019-05-06T05:25:39.502Z,174.38
2019-05-06T05:26:39.491Z,174.38
2019-05-06T05:27:39.479Z,168.75
2019-05-06T05:28:39.472Z,174.38
2019-05-06T05:29:39.456Z,180.00
2019-05-06T05:30:39.452Z,180.00
2019-05-06T05:31:48.597Z,180.00
2019-05-06T05:33:32.998Z,185.63
2019-05-06T05:34:39.990Z,185.63
2019-05-06T05:36:26.326Z,191.25
2019-05-06T05:37:26.266Z,202.50
2019-05-06T05:39:24.747Z,213.75
2019-05-06T05:40:22.675Z,219.38
2019-05-06T05:42:19.104Z,225.00
2019-05-06T05:43:16.062Z,230.63
2019-05-06T05:45:12.713Z,230.63
2019-05-06T05:46:12.489Z,230.63
2019-05-06T05:48:04.063Z,230.63
2019-05-06T05:49:04.014Z,230.63
2019-05-06T05:50:03.984Z,230.63
2019-05-06T05:51:03.972Z,230.63
2019-05-06T05:52:03.966Z,230.63
2019-05-06T05:53:03.956Z,230.63
2019-05-06T05:54:03.949Z,230.63
2019-05-06T05:55:04.495Z,230.63
2019-05-06T05:56:03.919Z,236.25
2019-05-06T05:57:03.916Z,236.25
2019-05-06T05:58:03.898Z,241.88
2019-05-06T05:59:03.886Z,253.13
2019-05-06T06:00:04.158Z,264.38
2019-05-06T06:01:04.261Z,270.00
2019-05-06T06:02:04.107Z,275.63
2019-05-06T06:03:06.865Z,275.63
2019-05-06T06:04:03.831Z,281.25
2019-05-06T06:05:03.822Z,281.25
2019-05-06T06:06:03.815Z,286.88
2019-05-06T06:07:03.806Z,286.88
2019-05-06T06:08:03.797Z,292.50
2019-05-06T06:09:03.785Z,298.13
2019-05-06T06:10:03.775Z,303.75
2019-05-06T06:11:04.375Z,309.38
2019-05-06T06:12:03.756Z,309.38
2019-05-06T06:13:03.743Z,315.00
2019-05-06T06:14:03.754Z,315.00
2019-05-06T06:15:03.734Z,320.63
2019-05-06T06:16:03.715Z,326.25
2019-05-06T06:17:03.702Z,326.25
2019-05-06T06:18:03.697Z,331.88
2019-05-06T06:19:03.708Z,331.88
2019-05-06T06:20:03.670Z,337.50
2019-05-06T06:21:16.959Z,337.50
2019-05-06T06:22:03.647Z,337.50
2019-05-06T06:23:03.641Z,337.50
2019-05-06T06:24:03.631Z,343.13
2019-05-06T06:25:04.381Z,354.38
2019-05-06T06:26:04.016Z,354.38
2019-05-06T06:27:03.604Z,360.00
2019-05-06T06:28:03.591Z,360.00
2019-05-06T06:29:03.582Z,365.63
2019-05-06T06:30:03.571Z,376.88
2019-05-06T06:31:03.558Z,382.50
2019-05-06T06:32:03.556Z,399.38
2019-05-06T06:33:03.540Z,410.63
2019-05-06T06:34:03.535Z,427.50
2019-05-06T06:35:10.807Z,438.75
2019-05-06T06:36:03.513Z,444.38
2019-05-06T06:37:56.938Z,455.63
2019-05-06T06:38:56.899Z,461.25
2019-05-06T06:40:53.563Z,466.88
2019-05-06T06:41:51.892Z,478.13
2019-05-06T06:43:43.878Z,511.88
2019-05-06T06:44:43.742Z,528.75
2019-05-06T06:46:37.123Z,562.50
2019-05-06T06:47:37.079Z,596.25
2019-05-06T06:49:43.194Z,708.75
2019-05-06T06:50:30.428Z,770.63
2019-05-06T06:52:23.813Z,933.75
2019-05-06T06:53:23.772Z,984.38
2019-05-06T06:55:18.585Z,821.25
2019-05-06T06:56:17.124Z,855.00
2019-05-06T06:58:11.988Z,1108.13
2019-05-06T06:59:12.671Z,1248.75
2019-05-06T07:01:13.045Z,1344.38
2019-05-06T07:02:04.681Z,1344.38
2019-05-06T07:04:35.683Z,1344.38
2019-05-06T07:05:02.399Z,1395.00
2019-05-06T07:08:34.099Z,1530.00
2019-05-06T07:09:23.835Z,1693.13
2019-05-06T08:00:32.696Z,2334.38
2019-05-06T08:01:33.234Z,2368.13
2019-05-06T08:04:56.858Z,2739.38
2019-05-06T08:05:58.825Z,2728.13
2019-05-06T08:10:56.358Z,2683.13
2019-05-06T08:11:56.429Z,2688.75
2019-05-06T08:14:15.770Z,2615.63
2019-05-06T08:14:52.175Z,2604.38
2019-05-06T08:19:48.592Z,3841.88
2019-05-06T08:20:47.543Z,3549.38
2019-05-06T08:22:47.105Z,4269.38
2019-05-06T08:23:42.837Z,3375.00
2019-05-06T08:26:09.166Z,3352.50
2019-05-06T08:26:34.386Z,3206.25
2019-05-06T08:28:48.860Z,2632.50
2019-05-06T08:29:29.302Z,2784.38
2019-05-06T08:36:11.358Z,2250.00
2019-05-06T08:37:02.385Z,2171.25
2019-05-06T08:42:15.170Z,1867.50
2019-05-06T08:42:58.891Z,1912.50
2019-05-06T08:48:02.414Z,1136.25
2019-05-06T08:48:56.628Z,7104.38
2019-05-06T08:53:54.282Z,1811.25
2019-05-06T08:54:54.242Z,7267.50
2019-05-06T08:56:56.653Z,7070.63
2019-05-06T08:57:47.645Z,7509.38
2019-05-06T09:01:13.339Z,6885.00
2019-05-06T09:02:13.704Z,6783.75
2019-05-06T09:04:12.475Z,6508.13
2019-05-06T09:05:06.626Z,6451.88
2019-05-06T09:06:07.526Z,1479.38
2019-05-06T09:07:06.636Z,1113.75
2019-05-06T09:08:06.596Z,6558.75
2019-05-06T09:09:06.575Z,6322.50
2019-05-06T09:10:06.575Z,6491.25
2019-05-06T09:11:06.578Z,6446.25
2019-05-06T09:12:06.610Z,6333.75
2019-05-06T09:13:06.580Z,6451.88
2019-05-06T09:14:09.681Z,6435.00
2019-05-06T09:15:08.496Z,6502.50
2019-05-06T09:16:09.154Z,6384.38
2019-05-06T09:17:06.589Z,6210.00
2019-05-06T09:18:06.575Z,6136.88
2019-05-06T09:19:06.573Z,6311.25
2019-05-06T09:20:06.577Z,6783.75
2019-05-06T09:21:06.590Z,7059.38
2019-05-06T09:22:06.577Z,7070.63
2019-05-06T09:23:06.583Z,7020.00
2019-05-06T09:24:06.583Z,1406.25
2019-05-06T09:25:06.590Z,1417.50
2019-05-06T09:26:06.599Z,1327.50
2019-05-06T09:27:06.585Z,1546.88
2019-05-06T09:28:06.588Z,2058.75
2019-05-06T09:29:06.590Z,7200.00
2019-05-06T09:30:06.595Z,6755.63
2019-05-06T09:34:16.956Z,5838.75
2019-05-06T09:35:12.939Z,6131.25
2019-05-06T09:37:05.413Z,6626.25
2019-05-06T09:38:04.439Z,6845.63
2019-05-06T09:41:57.819Z,5850.00
2019-05-06T09:42:32.050Z,6300.00
2019-05-06T09:47:57.822Z,6395.63
2019-05-06T09:48:28.268Z,1507.50
2019-05-06T09:51:54.404Z,5883.75
2019-05-06T09:52:53.790Z,6513.75
2019-05-06T10:01:02.476Z,5760.00
2019-05-06T10:01:56.094Z,5917.50
2019-05-06T10:03:54.307Z,5754.38
2019-05-06T10:04:49.309Z,6817.50
2019-05-06T10:08:14.731Z,6699.38
2019-05-06T10:09:16.134Z,6525.00
2019-05-06T10:11:11.741Z,6333.75
2019-05-06T10:12:08.205Z,6435.00
2019-05-06T10:17:17.075Z,6412.50
2019-05-06T10:18:07.516Z,6924.38
2019-05-06T10:19:07.461Z,7081.88
2019-05-06T10:25:06.374Z,2970.00
2019-05-06T10:25:44.020Z,2986.88
2019-05-06T10:29:35.513Z,3127.50
2019-05-06T10:30:09.411Z,3363.75
2019-05-06T10:32:12.085Z,3155.63
2019-05-06T10:33:03.679Z,3746.25
2019-05-06T10:35:35.047Z,5411.25
2019-05-06T10:35:57.738Z,3330.00
2019-05-06T10:37:53.772Z,3712.50
2019-05-06T10:38:52.882Z,3588.75
2019-05-06T10:43:57.775Z,2323.13
2019-05-06T10:44:49.580Z,2188.13
2019-05-06T10:46:52.691Z,1805.63
2019-05-06T10:47:43.535Z,1575.00
2019-05-06T10:49:59.033Z,1417.50
2019-05-06T10:50:37.188Z,5051.25
2019-05-06T10:51:36.968Z,1462.50
2019-05-06T10:52:36.970Z,1299.38
2019-05-06T10:53:37.014Z,1209.38
2019-05-06T10:54:36.979Z,1001.25
2019-05-06T10:55:36.970Z,950.63
2019-05-06T10:56:49.786Z,967.50
2019-05-06T10:57:36.971Z,1102.50
2019-05-06T10:58:36.968Z,4095.00
2019-05-06T10:59:36.975Z,1192.50
2019-05-06T11:00:36.983Z,1282.50
2019-05-06T11:01:36.966Z,5445.00
2019-05-06T11:02:36.966Z,3240.00
2019-05-06T11:03:36.971Z,2356.88
2019-05-06T11:04:36.962Z,3588.75
2019-05-06T11:05:36.966Z,2688.75
2019-05-06T11:06:36.959Z,3245.63
2019-05-06T11:07:36.963Z,2182.50
2019-05-06T11:08:36.969Z,2058.75
2019-05-06T11:09:36.972Z,2716.88
2019-05-06T11:10:41.099Z,2542.50
2019-05-06T11:11:38.769Z,1749.38
2019-05-06T11:12:36.961Z,1479.38
2019-05-06T11:13:36.962Z,1305.00
2019-05-06T11:14:36.981Z,1181.25
2019-05-06T11:15:36.964Z,1102.50
2019-05-06T11:16:36.955Z,1113.75
2019-05-06T11:17:36.956Z,1085.63
2019-05-06T11:18:36.950Z,1102.50
2019-05-06T11:19:36.957Z,1175.63
2019-05-06T11:20:36.952Z,1119.38
2019-05-06T11:21:36.949Z,1023.75
2019-05-06T11:22:36.952Z,961.88
2019-05-06T11:23:36.939Z,933.75
2019-05-06T11:24:36.947Z,860.63
2019-05-06T11:25:37.793Z,815.63
2019-05-06T11:26:36.943Z,798.75
2019-05-06T11:27:39.538Z,843.75
2019-05-06T11:28:36.933Z,916.88
2019-05-06T11:29:36.930Z,1046.25
2019-05-06T11:30:36.929Z,1147.50
2019-05-06T11:31:36.924Z,1243.13
2019-05-06T11:32:36.924Z,2193.75
2019-05-06T11:33:36.917Z,1456.88
2019-05-06T11:34:36.916Z,1546.88
2019-05-06T11:35:36.920Z,1715.63
2019-05-06T11:36:37.669Z,2058.75
2019-05-06T11:37:46.964Z,2176.88
2019-05-06T11:38:36.916Z,4078.13
2019-05-06T11:39:36.908Z,3031.88
2019-05-06T11:40:36.908Z,1642.50
2019-05-06T11:41:36.901Z,1355.63
2019-05-06T11:42:36.899Z,1158.75
2019-05-06T11:43:36.895Z,1040.63
2019-05-06T11:44:36.895Z,984.38
2019-05-06T11:45:36.884Z,995.63
2019-05-06T11:46:36.882Z,1006.88
2019-05-06T11:47:36.883Z,1035.00
2019-05-06T11:48:36.876Z,1192.50
2019-05-06T11:49:36.873Z,1456.88
2019-05-06T11:50:36.874Z,1501.88
2019-05-06T11:51:36.871Z,1563.75
2019-05-06T11:52:36.876Z,2176.88
2019-05-06T11:53:36.864Z,1794.38
2019-05-06T11:54:36.860Z,1777.50
2019-05-06T11:55:38.874Z,1659.38
2019-05-06T11:56:47.917Z,1575.00
2019-05-06T11:57:36.845Z,1366.88
2019-05-06T11:58:36.854Z,1226.25
2019-05-06T11:59:36.840Z,1136.25
2019-05-06T12:00:36.840Z,1085.63
2019-05-06T12:01:36.846Z,978.75
2019-05-06T12:02:36.833Z,855.00
2019-05-06T12:03:36.824Z,742.50
2019-05-06T12:04:36.821Z,630.00
2019-05-06T12:05:36.823Z,545.63
2019-05-06T12:06:36.818Z,495.00
2019-05-06T12:07:36.822Z,478.13
2019-05-06T12:08:36.811Z,483.75
2019-05-06T12:09:36.840Z,511.88
2019-05-06T12:10:36.798Z,573.75
2019-05-06T12:11:36.850Z,708.75
2019-05-06T12:12:36.796Z,883.13
2019-05-06T12:13:38.261Z,1164.38
2019-05-06T12:14:36.785Z,1901.25
2019-05-06T12:15:36.781Z,3622.50
2019-05-06T12:16:36.837Z,2885.63
2019-05-06T12:17:36.771Z,2587.50
2019-05-06T12:18:36.771Z,4123.13
2019-05-06T12:19:36.765Z,3673.13
2019-05-06T12:20:36.759Z,3031.88
2019-05-06T12:21:36.776Z,4488.75
2019-05-06T12:22:36.766Z,4471.88
2019-05-06T12:23:36.803Z,4314.38
2019-05-06T12:24:36.739Z,4297.50
2019-05-06T12:25:36.742Z,1974.38
2019-05-06T12:26:36.739Z,4207.50
2019-05-06T12:27:36.736Z,1805.63
2019-05-06T12:28:36.734Z,1732.50
2019-05-06T12:29:38.364Z,1535.63
2019-05-06T12:30:36.723Z,1473.75
2019-05-06T12:31:36.727Z,1462.50
2019-05-06T12:32:36.723Z,1535.63
2019-05-06T12:33:36.718Z,1687.50
2019-05-06T12:34:36.714Z,2019.38
2019-05-06T12:35:36.738Z,2818.13
2019-05-06T12:36:36.708Z,2373.75
2019-05-06T12:37:36.705Z,1845.00
2019-05-06T12:38:36.708Z,2160.00
2019-05-06T12:39:36.702Z,1631.25
2019-05-06T12:40:36.698Z,1490.63
2019-05-06T12:41:36.699Z,1417.50
2019-05-06T12:42:36.695Z,1445.63
2019-05-06T12:43:36.697Z,1569.38
2019-05-06T12:44:36.686Z,1755.00
2019-05-06T12:45:36.697Z,1980.00
2019-05-06T12:46:36.692Z,2075.63
2019-05-06T12:47:36.692Z,2227.50
2019-05-06T12:48:36.676Z,3853.13
2019-05-06T12:49:36.678Z,3841.88
2019-05-06T12:50:36.670Z,2598.75
2019-05-06T12:51:36.669Z,2542.50
2019-05-06T12:52:36.666Z,3588.75
2019-05-06T12:53:36.663Z,3690.00
2019-05-06T12:54:36.664Z,3763.13
2019-05-06T12:55:36.659Z,1569.38
2019-05-06T12:56:36.651Z,1372.50
2019-05-06T12:57:36.658Z,1456.88
2019-05-06T12:58:36.652Z,1524.38
2019-05-06T12:59:36.660Z,2806.88
2019-05-06T13:00:36.692Z,3026.25
2019-05-06T13:01:36.647Z,1777.50
2019-05-06T13:02:36.660Z,3763.13
2019-05-06T13:03:36.638Z,1631.25
2019-05-06T13:04:54.600Z,1282.50
2019-05-06T13:05:36.640Z,1192.50
2019-05-06T13:06:36.629Z,1113.75
2019-05-06T13:07:36.634Z,1175.63
2019-05-06T13:08:53.823Z,2514.38
2019-05-06T13:09:36.622Z,1434.38
2019-05-06T13:10:36.623Z,1338.75
2019-05-06T13:11:36.625Z,1271.25
2019-05-06T13:12:36.621Z,1141.88
2019-05-06T13:13:36.638Z,1023.75
2019-05-06T13:14:36.616Z,990.00
2019-05-06T13:15:36.615Z,1006.88
2019-05-06T13:16:36.619Z,1057.50
2019-05-06T13:17:36.604Z,1248.75
2019-05-06T13:18:36.604Z,1400.63
2019-05-06T13:19:36.605Z,1625.63
2019-05-06T13:20:36.606Z,1563.75
2019-05-06T13:21:36.592Z,1395.00
2019-05-06T13:22:36.594Z,1316.25
2019-05-06T13:23:36.594Z,1288.13
2019-05-06T13:24:36.589Z,1265.63
2019-05-06T13:25:36.599Z,1226.25
2019-05-06T13:26:36.594Z,1276.88
2019-05-06T13:27:36.578Z,1344.38
2019-05-06T13:28:36.573Z,1316.25
2019-05-06T13:29:36.587Z,1271.25
2019-05-06T13:30:36.575Z,1248.75
2019-05-06T13:31:36.568Z,1175.63
2019-05-06T13:32:36.561Z,1091.25
2019-05-06T13:33:36.643Z,1018.13
2019-05-06T13:34:36.566Z,939.38
2019-05-06T13:35:36.551Z,871.88
2019-05-06T13:36:36.548Z,804.38
2019-05-06T13:37:36.546Z,736.88
2019-05-06T13:38:36.534Z,691.88
2019-05-06T13:39:36.606Z,652.50
2019-05-06T13:40:51.276Z,658.13
2019-05-06T13:41:36.534Z,753.75
2019-05-06T13:42:36.536Z,1406.25
2019-05-06T13:43:36.517Z,6350.63
2019-05-06T13:44:36.511Z,1918.13
2019-05-06T13:45:36.515Z,1215.00
2019-05-06T13:46:36.510Z,1074.38
2019-05-06T13:47:36.501Z,1006.88
2019-05-06T13:48:36.516Z,939.38
2019-05-06T13:49:36.495Z,855.00
2019-05-06T13:50:38.403Z,781.88
2019-05-06T13:51:36.486Z,832.50
2019-05-06T13:52:36.489Z,1721.25
2019-05-06T13:53:39.699Z,905.63
2019-05-06T13:54:36.508Z,888.75
2019-05-06T13:55:36.478Z,798.75
2019-05-06T13:56:36.469Z,731.25
2019-05-06T13:57:39.221Z,652.50
2019-05-06T13:58:36.462Z,596.25
2019-05-06T13:59:37.169Z,596.25
2019-05-06T14:00:36.442Z,596.25
2019-05-06T14:01:36.447Z,585.00
2019-05-06T14:02:36.457Z,573.75
2019-05-06T14:03:36.436Z,551.25
2019-05-06T14:04:36.428Z,540.00
2019-05-06T14:05:36.425Z,568.13
2019-05-06T14:06:36.426Z,630.00
2019-05-06T14:07:36.411Z,911.25
2019-05-06T14:08:36.417Z,967.50
2019-05-06T14:09:40.267Z,1451.25
2019-05-06T14:10:36.398Z,1316.25
2019-05-06T14:11:36.394Z,1383.75
2019-05-06T14:12:36.392Z,1918.13
2019-05-06T14:13:36.386Z,1355.63
2019-05-06T14:14:36.378Z,1243.13
2019-05-06T14:15:36.372Z,1108.13
2019-05-06T14:16:36.369Z,1001.25
2019-05-06T14:17:36.366Z,945.00
2019-05-06T14:18:37.800Z,883.13
2019-05-06T14:19:36.359Z,815.63
2019-05-06T14:20:36.375Z,759.38
2019-05-06T14:21:36.347Z,691.88
2019-05-06T14:22:36.369Z,618.75
2019-05-06T14:23:36.338Z,590.63
2019-05-06T14:24:36.334Z,613.13
2019-05-06T14:25:36.327Z,675.00
2019-05-06T14:26:36.318Z,736.88
2019-05-06T14:27:36.319Z,793.13
2019-05-06T14:28:36.337Z,843.75
2019-05-06T14:29:36.309Z,866.25
2019-05-06T14:30:36.301Z,883.13
2019-05-06T14:31:36.296Z,888.75
2019-05-06T14:32:36.303Z,1147.50
2019-05-06T14:33:36.290Z,1282.50
2019-05-06T14:34:36.281Z,1153.13
2019-05-06T14:35:36.292Z,1051.88
2019-05-06T14:36:36.265Z,1091.25
2019-05-06T14:37:36.267Z,1119.38
2019-05-06T14:38:36.264Z,1130.63
2019-05-06T14:39:52.174Z,1136.25
2019-05-06T14:40:36.251Z,1102.50
2019-05-06T14:41:36.245Z,1271.25
2019-05-06T14:42:36.250Z,1091.25
2019-05-06T14:43:36.240Z,1063.13
2019-05-06T14:44:36.247Z,1023.75
2019-05-06T14:45:36.236Z,956.25
2019-05-06T14:46:36.213Z,900.00
2019-05-06T14:47:36.247Z,860.63
2019-05-06T14:48:36.210Z,804.38
2019-05-06T14:49:36.203Z,753.75
2019-05-06T14:50:45.247Z,703.13
2019-05-06T14:51:36.249Z,663.75
2019-05-06T14:52:36.184Z,641.25
2019-05-06T14:53:36.296Z,613.13
2019-05-06T14:57:59.480Z,703.13
2019-05-06T14:58:42.829Z,725.63
2019-05-06T15:00:37.514Z,759.38
2019-05-06T15:01:37.359Z,765.00
2019-05-06T15:03:42.939Z,753.75
2019-05-06T15:04:32.506Z,753.75
2019-05-06T15:06:24.649Z,781.88
2019-05-06T15:07:24.866Z,793.13
2019-05-06T15:10:50.829Z,798.75
2019-05-06T15:11:50.811Z,804.38
2019-05-06T15:13:58.034Z,770.63
2019-05-06T15:14:44.310Z,748.13
2019-05-06T15:16:46.695Z,714.38
2019-05-06T15:17:37.899Z,697.50
2019-05-06T15:19:33.514Z,652.50
2019-05-06T15:20:34.103Z,630.00
2019-05-06T15:22:38.470Z,562.50
2019-05-06T15:23:25.099Z,534.38
2019-05-06T15:26:58.454Z,517.50
2019-05-06T15:27:53.135Z,534.38
2019-05-06T15:29:48.748Z,551.25
2019-05-06T15:30:46.321Z,562.50
2019-05-06T15:34:26.534Z,511.88
2019-05-06T15:35:12.812Z,495.00
2019-05-06T15:37:05.617Z,472.50
2019-05-06T15:38:05.572Z,461.25
2019-05-06T15:39:06.076Z,444.38
2019-05-06T15:40:05.560Z,438.75
2019-05-06T15:41:05.560Z,438.75
2019-05-06T15:42:05.549Z,421.88
2019-05-06T15:43:05.542Z,405.00
2019-05-06T15:44:05.538Z,382.50
2019-05-06T15:45:05.529Z,371.25
2019-05-06T15:46:05.520Z,371.25
2019-05-06T15:47:05.517Z,388.13
2019-05-06T15:48:05.507Z,405.00
2019-05-06T15:49:05.507Z,416.25
2019-05-06T15:50:06.078Z,433.13
2019-05-06T15:51:05.493Z,461.25
2019-05-06T15:52:06.085Z,472.50
2019-05-06T15:53:05.480Z,472.50
2019-05-06T15:54:05.470Z,461.25
2019-05-06T15:55:05.482Z,455.63
2019-05-06T15:56:05.494Z,450.00
2019-05-06T15:57:05.452Z,433.13
2019-05-06T15:58:05.450Z,410.63
2019-05-06T15:59:05.438Z,393.75
2019-05-06T16:00:05.431Z,388.13
2019-05-06T16:01:05.425Z,365.63